createdAt,value
2017-08-26T00:00:33.370Z,20.70
2017-08-26T00:03:03.573Z,20.70
2017-08-26T00:05:29.936Z,20.70
2017-08-26T00:07:56.111Z,20.70
2017-08-26T00:10:23.094Z,20.60
2017-08-26T00:12:49.656Z,20.60
2017-08-26T00:15:15.845Z,20.50
2017-08-26T00:17:41.981Z,20.50
2017-08-26T00:20:08.917Z,20.50
2017-08-26T00:22:35.095Z,20.40
2017-08-26T00:25:01.276Z,20.40
2017-08-26T00:27:27.459Z,20.30
2017-08-26T00:29:53.603Z,20.40
2017-08-26T00:32:19.793Z,20.40
2017-08-26T00:34:46.399Z,20.30
2017-08-26T00:37:12.594Z,20.30
2017-08-26T00:39:39.158Z,20.30
2017-08-26T00:42:05.338Z,20.40
2017-08-26T00:44:31.547Z,20.30
2017-08-26T00:46:57.770Z,20.40
2017-08-26T00:49:23.952Z,20.40
2017-08-26T00:51:50.135Z,20.40
2017-08-26T00:54:16.330Z,20.50
2017-08-26T00:56:42.505Z,20.50
2017-08-26T00:59:08.694Z,20.50
2017-08-26T01:01:34.864Z,20.40
2017-08-26T01:04:01.076Z,20.40
2017-08-26T01:06:27.989Z,20.30
2017-08-26T01:08:54.245Z,20.40
2017-08-26T01:11:20.473Z,20.30
2017-08-26T01:13:46.720Z,20.30
2017-08-26T01:16:12.877Z,20.30
2017-08-26T01:18:39.050Z,20.30
2017-08-26T01:21:05.252Z,20.30
2017-08-26T01:23:31.410Z,20.30
2017-08-26T01:25:57.575Z,20.30
2017-08-26T01:28:23.776Z,20.30
2017-08-26T01:30:49.943Z,20.20
2017-08-26T01:33:16.128Z,20.00
2017-08-26T01:35:42.268Z,20.00
2017-08-26T01:38:08.449Z,20.00
2017-08-26T01:40:34.647Z,19.90
2017-08-26T01:43:00.813Z,19.90
2017-08-26T01:45:26.998Z,19.90
2017-08-26T01:47:53.154Z,20.00
2017-08-26T01:50:19.305Z,20.00
2017-08-26T01:52:45.522Z,20.10
2017-08-26T01:55:11.693Z,20.10
2017-08-26T01:57:38.618Z,20.00
2017-08-26T02:00:04.783Z,20.10
2017-08-26T02:02:30.946Z,20.00
2017-08-26T02:04:57.142Z,19.90
2017-08-26T02:07:23.330Z,19.90
2017-08-26T02:09:49.542Z,19.90
2017-08-26T02:12:15.703Z,19.90
2017-08-26T02:14:41.942Z,20.00
2017-08-26T02:17:08.116Z,19.90
2017-08-26T02:19:34.266Z,20.00
2017-08-26T02:22:00.480Z,20.10
2017-08-26T02:24:26.644Z,20.10
2017-08-26T02:26:52.864Z,20.10
2017-08-26T02:29:19.030Z,20.20
2017-08-26T02:31:45.230Z,20.10
2017-08-26T02:34:11.372Z,20.10
2017-08-26T02:36:37.579Z,20.10
2017-08-26T02:39:03.754Z,20.00
2017-08-26T02:41:29.955Z,20.10
2017-08-26T02:43:56.126Z,20.00
2017-08-26T02:46:22.283Z,20.70
2017-08-26T02:48:48.509Z,20.10
2017-08-26T02:51:14.651Z,20.00
2017-08-26T02:53:41.181Z,20.00
2017-08-26T02:56:07.395Z,20.00
2017-08-26T02:58:33.529Z,20.00
2017-08-26T03:01:01.603Z,20.00
2017-08-26T03:03:27.750Z,20.10
2017-08-26T03:05:54.662Z,20.10
2017-08-26T03:08:21.546Z,20.10
2017-08-26T03:10:47.690Z,20.10
2017-08-26T03:13:13.838Z,20.10
2017-08-26T03:15:40.015Z,20.10
2017-08-26T03:18:06.195Z,20.40
2017-08-26T03:20:32.340Z,20.10
2017-08-26T03:22:58.486Z,20.10
2017-08-26T03:25:24.641Z,20.10
2017-08-26T03:27:50.835Z,20.00
2017-08-26T03:30:17.992Z,20.10
2017-08-26T03:32:44.166Z,20.10
2017-08-26T03:35:10.393Z,20.10
2017-08-26T03:37:36.942Z,20.20
2017-08-26T03:40:03.127Z,20.20
2017-08-26T03:42:29.274Z,20.10
2017-08-26T03:44:55.422Z,20.00
2017-08-26T03:47:21.586Z,20.00
2017-08-26T03:49:47.784Z,20.00
2017-08-26T03:52:13.979Z,20.00
2017-08-26T03:54:40.518Z,20.00
2017-08-26T03:57:06.699Z,20.00
2017-08-26T03:59:32.858Z,19.90
2017-08-26T04:01:59.029Z,19.90
2017-08-26T04:04:25.175Z,19.80
2017-08-26T04:06:51.330Z,20.30
2017-08-26T04:09:17.910Z,19.70
2017-08-26T04:11:44.067Z,19.70
2017-08-26T04:14:10.254Z,19.70
2017-08-26T04:16:36.436Z,19.80
2017-08-26T04:19:02.632Z,19.80
2017-08-26T04:21:29.882Z,19.70
2017-08-26T04:23:56.102Z,19.70
2017-08-26T04:26:22.315Z,19.70
2017-08-26T04:28:48.465Z,19.60
2017-08-26T04:31:14.695Z,19.60
2017-08-26T04:33:40.906Z,19.60
2017-08-26T04:36:07.066Z,19.60
2017-08-26T04:38:33.215Z,19.60
2017-08-26T04:40:59.375Z,19.70
2017-08-26T04:43:27.265Z,19.70
2017-08-26T04:45:53.441Z,19.70
2017-08-26T04:48:19.635Z,19.70
2017-08-26T04:50:45.794Z,19.70
2017-08-26T04:53:11.986Z,19.60
2017-08-26T04:55:38.143Z,19.60
2017-08-26T04:58:04.287Z,19.70
2017-08-26T05:00:30.502Z,19.70
2017-08-26T05:02:57.637Z,19.70
2017-08-26T05:05:23.809Z,19.60
2017-08-26T05:07:50.355Z,19.60
2017-08-26T05:10:16.499Z,19.70
2017-08-26T05:12:42.722Z,19.70
2017-08-26T05:15:09.645Z,19.70
2017-08-26T05:17:35.801Z,19.70
2017-08-26T05:20:02.005Z,19.80
2017-08-26T05:22:28.170Z,19.80
2017-08-26T05:24:54.345Z,19.90
2017-08-26T05:27:20.499Z,20.00
2017-08-26T05:29:46.773Z,20.00
2017-08-26T05:32:13.027Z,20.00
2017-08-26T05:34:39.550Z,20.00
2017-08-26T05:37:05.774Z,19.90
2017-08-26T05:39:31.966Z,20.10
2017-08-26T05:41:58.178Z,20.20
2017-08-26T05:44:24.356Z,20.20
2017-08-26T05:46:51.498Z,20.20
2017-08-26T05:49:17.647Z,20.30
2017-08-26T05:51:43.846Z,20.30
2017-08-26T05:54:10.029Z,20.40
2017-08-26T05:56:36.198Z,20.40
2017-08-26T05:59:02.358Z,20.40
2017-08-26T06:01:28.598Z,20.40
2017-08-26T06:03:54.773Z,20.50
2017-08-26T06:06:20.971Z,20.50
2017-08-26T06:08:47.180Z,20.60
2017-08-26T06:11:13.358Z,20.70
2017-08-26T06:13:39.562Z,20.80
2017-08-26T06:16:05.739Z,20.80
2017-08-26T06:18:32.572Z,20.90
2017-08-26T06:20:58.840Z,21.00
2017-08-26T06:23:25.026Z,20.80
2017-08-26T06:25:51.235Z,20.80
2017-08-26T06:28:17.455Z,20.80
2017-08-26T06:30:43.625Z,20.90
2017-08-26T06:33:10.581Z,21.00
2017-08-26T06:35:37.502Z,21.10
2017-08-26T06:38:04.475Z,21.20
2017-08-26T06:40:30.691Z,21.40
2017-08-26T06:42:56.895Z,21.60
2017-08-26T06:45:23.849Z,21.80
2017-08-26T06:47:50.404Z,21.80
2017-08-26T06:50:17.062Z,21.70
2017-08-26T06:52:43.241Z,21.60
2017-08-26T06:55:09.547Z,21.70
2017-08-26T06:57:35.698Z,21.80
2017-08-26T07:00:01.949Z,22.10
2017-08-26T07:02:28.224Z,22.50
2017-08-26T07:04:54.455Z,22.60
2017-08-26T07:07:20.618Z,22.50
2017-08-26T07:09:47.665Z,22.40
2017-08-26T07:12:14.608Z,22.30
2017-08-26T07:14:40.770Z,22.40
2017-08-26T07:17:06.986Z,22.60
2017-08-26T07:19:33.175Z,22.70
2017-08-26T07:22:00.671Z,22.60
2017-08-26T07:24:26.906Z,22.60
2017-08-26T07:26:53.122Z,22.50
2017-08-26T07:29:19.327Z,22.40
2017-08-26T07:31:45.733Z,22.10
2017-08-26T07:34:11.950Z,22.00
2017-08-26T07:36:41.303Z,21.90
2017-08-26T07:39:07.611Z,21.80
2017-08-26T07:41:33.998Z,21.80
2017-08-26T07:44:01.670Z,21.70
2017-08-26T07:46:27.867Z,21.70
2017-08-26T07:48:54.072Z,21.70
2017-08-26T07:51:20.275Z,21.80
2017-08-26T07:53:46.435Z,21.90
2017-08-26T07:56:13.547Z,22.00
2017-08-26T07:58:39.848Z,22.20
2017-08-26T08:01:06.015Z,22.20
2017-08-26T08:03:32.212Z,22.30
2017-08-26T08:05:59.099Z,22.40
2017-08-26T08:08:25.283Z,22.40
2017-08-26T08:10:51.485Z,22.50
2017-08-26T08:13:17.715Z,22.70
2017-08-26T08:15:43.910Z,22.70
2017-08-26T08:18:10.067Z,22.70
2017-08-26T08:20:36.254Z,22.60
2017-08-26T08:23:02.450Z,22.80
2017-08-26T08:25:28.649Z,23.10
2017-08-26T08:27:54.842Z,23.00
2017-08-26T08:30:21.070Z,23.00
2017-08-26T08:32:47.243Z,22.80
2017-08-26T08:35:13.395Z,22.80
2017-08-26T08:37:39.628Z,22.80
2017-08-26T08:40:05.922Z,22.80
2017-08-26T08:42:32.154Z,23.00
2017-08-26T08:44:58.334Z,23.10
2017-08-26T08:47:24.506Z,23.10
2017-08-26T08:49:51.690Z,23.00
2017-08-26T08:52:17.866Z,23.00
2017-08-26T08:54:44.034Z,23.30
2017-08-26T08:57:10.269Z,23.00
2017-08-26T08:59:38.953Z,22.90
2017-08-26T09:02:05.871Z,22.90
2017-08-26T09:04:32.187Z,23.00
2017-08-26T09:06:58.392Z,23.10
2017-08-26T09:09:24.590Z,23.30
2017-08-26T09:11:50.839Z,23.50
2017-08-26T09:14:17.034Z,23.60
2017-08-26T09:16:43.210Z,23.80
2017-08-26T09:19:09.415Z,24.10
2017-08-26T09:21:35.604Z,24.50
2017-08-26T09:24:01.778Z,24.80
2017-08-26T09:26:27.974Z,24.50
2017-08-26T09:28:54.211Z,24.40
2017-08-26T09:31:20.442Z,24.30
2017-08-26T09:33:46.690Z,24.30
2017-08-26T09:36:12.853Z,24.30
2017-08-26T09:38:39.059Z,24.40
2017-08-26T09:41:05.355Z,24.70
2017-08-26T09:43:31.536Z,25.40
2017-08-26T09:45:57.848Z,25.90
2017-08-26T09:48:24.027Z,26.10
2017-08-26T09:50:50.301Z,26.00
2017-08-26T09:53:16.493Z,25.80
2017-08-26T09:55:42.704Z,25.60
2017-08-26T09:58:09.261Z,25.50
2017-08-26T10:00:35.480Z,25.30
2017-08-26T10:03:01.688Z,25.30
2017-08-26T10:05:27.910Z,25.30
2017-08-26T10:07:54.181Z,25.30
2017-08-26T10:10:20.673Z,25.50
2017-08-26T10:12:46.987Z,26.10
2017-08-26T10:15:13.181Z,26.70
2017-08-26T10:17:40.140Z,27.20
2017-08-26T10:20:06.281Z,27.60
2017-08-26T10:22:32.522Z,28.00
2017-08-26T10:24:58.696Z,28.30
2017-08-26T10:27:25.559Z,28.40
2017-08-26T10:29:57.285Z,28.50
2017-08-26T10:32:38.355Z,28.40
2017-08-26T10:35:04.894Z,28.60
2017-08-26T10:37:31.272Z,28.70
2017-08-26T10:39:57.514Z,28.70
2017-08-26T10:42:23.722Z,28.60
2017-08-26T10:44:49.910Z,28.50
2017-08-26T10:47:16.341Z,28.00
2017-08-26T10:49:47.055Z,28.00
2017-08-26T10:52:13.239Z,28.20
2017-08-26T10:54:51.860Z,28.80
2017-08-26T10:57:19.179Z,28.90
2017-08-26T10:59:45.393Z,29.00
2017-08-26T11:02:11.612Z,29.10
2017-08-26T11:04:38.591Z,29.50
2017-08-26T11:07:04.815Z,29.30
2017-08-26T11:09:31.013Z,29.30
2017-08-26T11:11:57.215Z,29.40
2017-08-26T11:14:23.379Z,29.50
2017-08-26T11:16:49.642Z,29.50
2017-08-26T11:19:15.822Z,29.60
2017-08-26T11:21:42.102Z,29.80
2017-08-26T11:24:08.331Z,29.60
2017-08-26T11:26:34.488Z,29.80
2017-08-26T11:29:00.665Z,29.90
2017-08-26T11:31:26.868Z,29.90
2017-08-26T11:33:53.124Z,29.80
2017-08-26T11:36:19.270Z,30.00
2017-08-26T11:38:45.435Z,30.20
2017-08-26T11:41:11.637Z,30.30
2017-08-26T11:43:37.784Z,30.20
2017-08-26T11:46:04.011Z,29.80
2017-08-26T11:48:30.154Z,29.20
2017-08-26T11:50:57.153Z,28.50
2017-08-26T11:53:23.348Z,28.10
2017-08-26T11:55:50.877Z,27.80
2017-08-26T11:58:17.242Z,27.90
2017-08-26T12:00:43.699Z,27.80
2017-08-26T12:03:10.395Z,27.60
2017-08-26T12:05:37.487Z,27.50
2017-08-26T12:08:04.859Z,27.40
2017-08-26T12:10:31.085Z,27.40
2017-08-26T12:12:57.691Z,27.70
2017-08-26T12:15:23.912Z,28.20
2017-08-26T12:17:50.076Z,28.80
2017-08-26T12:20:17.037Z,29.30
2017-08-26T12:22:43.223Z,29.70
2017-08-26T12:25:09.416Z,30.20
2017-08-26T12:27:35.590Z,30.80
2017-08-26T12:30:02.482Z,30.80
2017-08-26T12:32:28.683Z,30.70
2017-08-26T12:34:54.884Z,31.10
2017-08-26T12:37:21.055Z,31.30
2017-08-26T12:39:47.250Z,31.50
2017-08-26T12:42:13.459Z,31.50
2017-08-26T12:44:39.715Z,31.50
2017-08-26T12:47:05.892Z,31.70
2017-08-26T12:49:32.835Z,31.50
2017-08-26T12:51:59.076Z,32.00
2017-08-26T12:54:25.229Z,32.10
2017-08-26T12:56:51.423Z,31.50
2017-08-26T12:59:17.586Z,31.30
2017-08-26T13:01:43.784Z,31.10
2017-08-26T13:04:09.943Z,30.80
2017-08-26T13:06:36.205Z,31.00
2017-08-26T13:09:03.276Z,31.00
2017-08-26T13:11:29.775Z,31.00
2017-08-26T13:13:56.891Z,31.20
2017-08-26T13:16:23.163Z,30.20
2017-08-26T13:18:49.366Z,29.80
2017-08-26T13:21:15.561Z,29.80
2017-08-26T13:23:41.744Z,29.70
2017-08-26T13:26:07.920Z,29.20
2017-08-26T13:28:34.152Z,28.40
2017-08-26T13:31:00.363Z,28.30
2017-08-26T13:33:26.584Z,28.00
2017-08-26T13:35:52.786Z,27.40
2017-08-26T13:38:19.006Z,27.10
2017-08-26T13:40:45.189Z,26.90
2017-08-26T13:43:12.206Z,26.70
2017-08-26T13:45:38.486Z,26.50
2017-08-26T13:48:04.682Z,26.40
2017-08-26T13:50:30.886Z,26.30
2017-08-26T13:52:57.130Z,26.30
2017-08-26T13:55:23.350Z,26.40
2017-08-26T13:57:50.230Z,26.40
2017-08-26T14:00:16.442Z,26.40
2017-08-26T14:02:42.601Z,26.50
2017-08-26T14:05:08.853Z,26.50
2017-08-26T14:07:35.053Z,26.40
2017-08-26T14:10:01.262Z,26.40
2017-08-26T14:12:27.439Z,26.20
2017-08-26T14:14:53.717Z,26.10
2017-08-26T14:17:19.874Z,26.10
2017-08-26T14:19:46.111Z,26.10
2017-08-26T14:22:12.293Z,26.10
2017-08-26T14:24:38.462Z,26.30
2017-08-26T14:27:04.654Z,26.30
2017-08-26T14:29:30.802Z,26.90
2017-08-26T14:31:56.973Z,27.20
2017-08-26T14:34:23.182Z,27.30
2017-08-26T14:36:49.372Z,27.30
2017-08-26T14:39:16.288Z,27.50
2017-08-26T14:41:42.507Z,27.40
2017-08-26T14:44:09.099Z,27.20
2017-08-26T14:46:35.251Z,27.30
2017-08-26T14:49:01.463Z,27.10
2017-08-26T14:51:27.646Z,27.10
2017-08-26T14:53:53.842Z,27.10
2017-08-26T14:56:20.892Z,26.80
2017-08-26T14:58:47.066Z,26.90
2017-08-26T15:01:13.215Z,27.00
2017-08-26T15:03:39.818Z,27.00
2017-08-26T15:06:05.991Z,26.90
2017-08-26T15:08:32.172Z,26.90
2017-08-26T15:10:58.349Z,26.80
2017-08-26T15:13:24.517Z,26.80
2017-08-26T15:15:50.710Z,26.70
2017-08-26T15:18:17.654Z,27.00
2017-08-26T15:20:43.864Z,26.90
2017-08-26T15:23:10.763Z,26.80
2017-08-26T15:25:37.889Z,26.70
2017-08-26T15:28:04.073Z,26.60
2017-08-26T15:30:30.239Z,26.40
2017-08-26T15:32:57.434Z,26.50
2017-08-26T15:35:23.943Z,26.40
2017-08-26T15:37:50.131Z,26.50
2017-08-26T15:40:16.271Z,26.40
2017-08-26T15:42:42.418Z,26.40
2017-08-26T15:45:08.590Z,26.40
2017-08-26T15:47:35.537Z,26.30
2017-08-26T15:50:02.492Z,26.30
2017-08-26T15:52:28.650Z,26.30
2017-08-26T15:54:54.850Z,26.20
2017-08-26T15:57:21.063Z,26.20
2017-08-26T15:59:47.223Z,26.30
2017-08-26T16:02:13.402Z,26.30
2017-08-26T16:04:39.602Z,26.20
2017-08-26T16:07:05.888Z,26.10
2017-08-26T16:09:32.330Z,26.10
2017-08-26T16:11:58.572Z,26.10
2017-08-26T16:16:59.852Z,26.10
2017-08-26T16:19:29.842Z,26.00
2017-08-26T16:21:58.079Z,26.00
2017-08-26T16:24:27.484Z,26.00
2017-08-26T16:26:54.491Z,26.00
2017-08-26T16:29:21.187Z,26.00
2017-08-26T16:31:47.468Z,26.00
2017-08-26T16:34:14.376Z,26.00
2017-08-26T16:36:41.342Z,25.90
2017-08-26T16:39:07.527Z,25.90
2017-08-26T16:41:33.732Z,25.80
2017-08-26T16:43:59.898Z,25.70
2017-08-26T16:46:26.098Z,25.60
2017-08-26T16:48:52.250Z,25.60
2017-08-26T16:51:18.811Z,25.60
2017-08-26T16:53:45.743Z,25.60
2017-08-26T16:56:11.930Z,25.60
2017-08-26T16:58:38.116Z,25.60
2017-08-26T17:01:04.414Z,25.70
2017-08-26T17:03:30.631Z,25.60
2017-08-26T17:05:56.786Z,25.50
2017-08-26T17:08:22.979Z,25.40
2017-08-26T17:10:49.163Z,25.40
2017-08-26T17:13:15.332Z,25.30
2017-08-26T17:15:41.532Z,25.30
2017-08-26T17:18:08.770Z,25.20
2017-08-26T17:20:35.310Z,25.20
2017-08-26T17:23:01.516Z,25.20
2017-08-26T17:25:27.695Z,25.20
2017-08-26T17:27:53.903Z,25.10
2017-08-26T17:30:20.094Z,25.10
2017-08-26T17:32:46.282Z,25.00
2017-08-26T17:35:13.222Z,24.90
2017-08-26T17:37:39.451Z,25.00
2017-08-26T17:40:05.639Z,24.90
2017-08-26T17:42:31.802Z,24.90
2017-08-26T17:44:58.362Z,24.90
2017-08-26T17:47:24.939Z,24.50
2017-08-26T17:49:51.120Z,24.80
2017-08-26T17:52:17.300Z,24.70
2017-08-26T17:54:43.452Z,24.70
2017-08-26T17:57:09.669Z,24.70
2017-08-26T17:59:36.262Z,24.60
2017-08-26T18:02:02.439Z,24.60
2017-08-26T18:04:29.758Z,24.60
2017-08-26T18:06:56.320Z,24.60
2017-08-26T18:09:22.507Z,24.60
2017-08-26T18:11:48.649Z,24.50
2017-08-26T18:14:14.846Z,24.40
2017-08-26T18:16:41.026Z,24.40
2017-08-26T18:19:07.203Z,24.40
2017-08-26T18:21:33.486Z,24.30
2017-08-26T18:23:59.682Z,24.30
2017-08-26T18:26:25.914Z,24.30
2017-08-26T18:28:52.093Z,24.20
2017-08-26T18:31:18.339Z,24.20
2017-08-26T18:33:44.577Z,24.20
2017-08-26T18:36:10.751Z,24.10
2017-08-26T18:38:36.968Z,24.10
2017-08-26T18:41:03.124Z,24.00
2017-08-26T18:43:29.303Z,24.00
2017-08-26T18:45:56.216Z,23.90
2017-08-26T18:48:22.416Z,23.90
2017-08-26T18:50:48.604Z,23.80
2017-08-26T18:53:14.755Z,23.70
2017-08-26T18:55:41.010Z,23.70
2017-08-26T18:58:07.213Z,23.60
2017-08-26T19:00:33.412Z,23.60
2017-08-26T19:02:59.581Z,23.60
2017-08-26T19:05:25.858Z,23.50
2017-08-26T19:07:52.106Z,23.50
2017-08-26T19:10:18.295Z,23.50
2017-08-26T19:12:44.506Z,23.40
2017-08-26T19:15:10.689Z,23.40
2017-08-26T19:17:37.602Z,23.30
2017-08-26T19:20:03.785Z,23.30
2017-08-26T19:22:30.019Z,23.30
2017-08-26T19:24:56.205Z,23.30
2017-08-26T19:27:22.363Z,23.30
2017-08-26T19:29:49.308Z,23.30
2017-08-26T19:32:15.866Z,23.40
2017-08-26T19:34:42.083Z,23.30
2017-08-26T19:37:09.005Z,23.40
2017-08-26T19:39:35.162Z,23.40
2017-08-26T19:42:01.332Z,23.40
2017-08-26T19:44:27.526Z,23.30
2017-08-26T19:46:53.781Z,23.30
2017-08-26T19:49:19.923Z,23.30
2017-08-26T19:51:46.076Z,23.30
2017-08-26T19:54:12.251Z,23.30
2017-08-26T19:56:38.450Z,23.20
2017-08-26T19:59:04.674Z,23.20
2017-08-26T20:01:30.882Z,23.20
2017-08-26T20:03:57.041Z,23.20
2017-08-26T20:06:23.210Z,23.20
2017-08-26T20:08:49.387Z,23.20
2017-08-26T20:11:15.565Z,23.10
2017-08-26T20:13:41.731Z,23.10
2017-08-26T20:16:07.929Z,23.10
2017-08-26T20:18:34.107Z,23.10
2017-08-26T20:21:00.332Z,23.10
2017-08-26T20:23:27.365Z,23.00
2017-08-26T20:25:53.550Z,23.10
2017-08-26T20:28:19.729Z,23.10
2017-08-26T20:30:45.909Z,23.20
2017-08-26T20:33:12.109Z,23.20
2017-08-26T20:35:38.316Z,23.10
2017-08-26T20:38:05.227Z,23.10
2017-08-26T20:40:31.393Z,23.10
2017-08-26T20:42:57.587Z,23.10
2017-08-26T20:45:23.807Z,23.10
2017-08-26T20:47:49.979Z,23.10
2017-08-26T20:50:16.183Z,23.00
2017-08-26T20:52:42.352Z,23.00
2017-08-26T20:55:08.534Z,22.90
2017-08-26T20:57:34.754Z,22.90
2017-08-26T21:00:01.000Z,22.70
2017-08-26T21:02:27.214Z,22.60
2017-08-26T21:04:53.434Z,22.60
2017-08-26T21:07:19.605Z,22.50
2017-08-26T21:09:45.754Z,22.50
2017-08-26T21:12:12.680Z,22.50
2017-08-26T21:14:38.901Z,22.40
2017-08-26T21:17:05.087Z,22.40
2017-08-26T21:19:31.231Z,22.40
2017-08-26T21:21:57.452Z,22.40
2017-08-26T21:24:23.686Z,22.20
2017-08-26T21:26:49.868Z,22.40
2017-08-26T21:29:16.034Z,22.40
2017-08-26T21:31:42.203Z,22.40
2017-08-26T21:34:08.405Z,22.40
2017-08-26T21:36:34.575Z,22.40
2017-08-26T21:39:00.783Z,22.50
2017-08-26T21:41:26.968Z,22.50
2017-08-26T21:43:53.137Z,22.40
2017-08-26T21:46:19.326Z,22.30
2017-08-26T21:48:45.449Z,22.20
2017-08-26T21:51:11.627Z,22.20
2017-08-26T21:53:37.790Z,22.10
2017-08-26T21:56:04.018Z,22.10
2017-08-26T21:58:30.200Z,22.20
2017-08-26T22:00:56.391Z,22.20
2017-08-26T22:03:22.558Z,22.20
2017-08-26T22:05:48.689Z,22.20
2017-08-26T22:08:14.817Z,22.20
2017-08-26T22:10:40.997Z,22.20
2017-08-26T22:13:07.158Z,22.20
2017-08-26T22:15:33.361Z,22.10
2017-08-26T22:17:59.516Z,22.20
2017-08-26T22:20:25.693Z,22.20
2017-08-26T22:22:52.256Z,22.20
2017-08-26T22:25:18.406Z,22.20
2017-08-26T22:27:44.567Z,22.20
2017-08-26T22:30:10.784Z,22.20
2017-08-26T22:32:37.313Z,22.20
2017-08-26T22:35:03.518Z,22.10
2017-08-26T22:37:29.718Z,22.10
2017-08-26T22:39:55.863Z,22.00
2017-08-26T22:42:22.055Z,21.90
2017-08-26T22:44:48.194Z,21.80
2017-08-26T22:47:14.357Z,21.80
2017-08-26T22:49:40.569Z,21.70
2017-08-26T22:52:06.735Z,21.70
2017-08-26T22:54:32.930Z,21.60
2017-08-26T22:56:59.094Z,21.60
2017-08-26T22:59:25.690Z,21.60
2017-08-26T23:01:53.335Z,21.60
2017-08-26T23:04:19.674Z,21.60
2017-08-26T23:06:45.813Z,21.60
2017-08-26T23:09:12.389Z,21.70
2017-08-26T23:11:38.554Z,21.60
2017-08-26T23:14:04.770Z,21.60
2017-08-26T23:16:30.984Z,21.60
2017-08-26T23:18:57.186Z,21.50
2017-08-26T23:21:23.390Z,21.50
2017-08-26T23:23:49.585Z,21.50
2017-08-26T23:26:15.775Z,21.40
2017-08-26T23:28:41.995Z,21.40
2017-08-26T23:31:08.166Z,21.40
2017-08-26T23:33:34.345Z,21.40
2017-08-26T23:36:00.524Z,21.30
2017-08-26T23:38:26.711Z,21.40
2017-08-26T23:40:52.857Z,21.50
2017-08-26T23:43:19.085Z,21.50
2017-08-26T23:45:45.267Z,21.50
2017-08-26T23:48:11.539Z,21.50
2017-08-26T23:50:37.670Z,21.60
2017-08-26T23:53:03.833Z,21.50
2017-08-26T23:55:30.012Z,25.00
2017-08-26T23:57:56.190Z,21.40
